createdAt,value
2023-04-09T00:00:42.216Z,3.39
2023-04-09T00:03:08.926Z,3.38
2023-04-09T00:05:39.649Z,3.39
2023-04-09T00:08:06.950Z,3.38
2023-04-09T00:10:33.477Z,3.35
2023-04-09T00:13:00.252Z,3.34
2023-04-09T00:15:31.320Z,3.33
2023-04-09T00:17:58.605Z,3.30
2023-04-09T00:20:25.410Z,3.31
2023-04-09T00:22:52.334Z,3.30
2023-04-09T00:25:20.015Z,3.29
2023-04-09T00:27:46.995Z,3.28
2023-04-09T00:30:13.806Z,3.31
2023-04-09T00:32:40.632Z,3.33
2023-04-09T00:35:08.406Z,3.33
2023-04-09T00:37:35.255Z,3.34
2023-04-09T00:40:01.869Z,3.33
2023-04-09T00:42:32.287Z,3.33
2023-04-09T00:44:59.244Z,3.33
2023-04-09T00:47:29.913Z,3.33
2023-04-09T00:49:57.634Z,3.33
2023-04-09T00:52:25.023Z,3.34
2023-04-09T00:54:52.486Z,3.31
2023-04-09T00:57:19.646Z,3.31
2023-04-09T00:59:46.394Z,3.30
2023-04-09T01:02:13.159Z,3.27
2023-04-09T01:04:42.305Z,3.25
2023-04-09T01:07:31.837Z,3.22
2023-04-09T01:10:10.777Z,3.22
2023-04-09T01:12:44.117Z,3.20
2023-04-09T01:15:15.298Z,3.20
2023-04-09T01:17:47.031Z,3.21
2023-04-09T01:20:31.736Z,3.21
2023-04-09T01:23:36.996Z,3.18
2023-04-09T01:26:34.034Z,3.16
2023-04-09T01:29:03.050Z,3.15
2023-04-09T01:31:36.058Z,3.06
2023-04-09T01:34:03.716Z,2.99
2023-04-09T01:36:32.367Z,2.93
2023-04-09T01:39:01.255Z,2.91
2023-04-09T01:41:31.163Z,2.92
2023-04-09T01:44:01.773Z,2.90
2023-04-09T01:46:29.924Z,2.85
2023-04-09T01:48:57.433Z,2.84
2023-04-09T01:51:24.298Z,2.80
2023-04-09T01:53:51.221Z,2.79
2023-04-09T01:56:17.815Z,2.78
2023-04-09T01:58:44.889Z,2.71
2023-04-09T02:01:27.336Z,2.71
2023-04-09T02:04:00.849Z,2.71
2023-04-09T02:06:33.149Z,2.69
2023-04-09T02:09:02.096Z,2.67
2023-04-09T02:11:32.153Z,2.66
2023-04-09T02:13:59.370Z,2.64
2023-04-09T02:16:27.465Z,2.64
2023-04-09T02:18:58.066Z,2.64
2023-04-09T02:21:24.617Z,2.61
2023-04-09T02:23:51.249Z,2.54
2023-04-09T02:26:18.153Z,2.51
2023-04-09T02:28:44.686Z,2.48
2023-04-09T02:31:11.562Z,2.34
2023-04-09T02:33:38.234Z,2.24
2023-04-09T02:36:05.782Z,2.13
2023-04-09T02:38:32.678Z,2.09
2023-04-09T02:40:59.256Z,2.04
2023-04-09T02:43:25.809Z,2.04
2023-04-09T02:45:52.354Z,2.04
2023-04-09T02:48:18.905Z,1.97
2023-04-09T02:50:45.464Z,1.93
2023-04-09T02:53:12.095Z,1.90
2023-04-09T02:55:38.651Z,1.88
2023-04-09T02:58:05.192Z,1.87
2023-04-09T03:00:31.793Z,1.87
2023-04-09T03:02:58.764Z,1.85
2023-04-09T03:05:25.525Z,1.83
2023-04-09T03:07:52.137Z,1.70
2023-04-09T03:10:18.695Z,1.61
2023-04-09T03:12:45.321Z,1.56
2023-04-09T03:15:11.876Z,1.48
2023-04-09T03:17:39.137Z,1.49
2023-04-09T03:20:07.670Z,1.47
2023-04-09T03:22:38.096Z,1.36
2023-04-09T03:25:05.693Z,1.25
2023-04-09T03:27:32.857Z,1.25
2023-04-09T03:29:59.440Z,1.25
2023-04-09T03:32:26.035Z,1.25
2023-04-09T03:34:52.647Z,1.21
2023-04-09T03:37:19.292Z,1.28
2023-04-09T03:39:45.862Z,1.29
2023-04-09T03:42:12.425Z,1.26
2023-04-09T03:44:38.983Z,1.25
2023-04-09T03:47:05.779Z,1.27
2023-04-09T03:49:35.807Z,1.25
2023-04-09T03:52:02.403Z,1.26
2023-04-09T03:54:31.890Z,1.30
2023-04-09T03:56:58.451Z,1.33
2023-04-09T03:59:25.091Z,1.38
2023-04-09T04:01:51.744Z,1.37
2023-04-09T04:04:19.427Z,1.41
2023-04-09T04:06:47.757Z,1.42
2023-04-09T04:09:14.342Z,1.44
2023-04-09T04:11:40.933Z,1.47
2023-04-09T04:14:07.502Z,1.50
2023-04-09T04:16:34.185Z,1.54
2023-04-09T04:19:01.020Z,1.58
2023-04-09T04:21:27.608Z,1.63
2023-04-09T04:23:54.182Z,1.61
2023-04-09T04:26:20.861Z,1.57
2023-04-09T04:28:47.447Z,1.54
2023-04-09T04:31:14.029Z,1.53
2023-04-09T04:33:41.929Z,1.56
2023-04-09T04:36:14.655Z,1.63
2023-04-09T04:38:42.178Z,1.71
2023-04-09T04:41:10.431Z,1.78
2023-04-09T04:43:37.066Z,1.84
2023-04-09T04:46:03.782Z,1.91
2023-04-09T04:48:30.986Z,1.98
2023-04-09T04:50:59.437Z,2.06
2023-04-09T04:53:26.356Z,2.10
2023-04-09T04:55:53.217Z,2.16
2023-04-09T04:58:20.113Z,2.20
2023-04-09T05:00:46.887Z,2.23
2023-04-09T05:03:13.936Z,2.26
2023-04-09T05:05:40.726Z,2.26
2023-04-09T05:08:07.484Z,2.27
2023-04-09T05:10:34.070Z,2.25
2023-04-09T05:13:00.765Z,2.28
2023-04-09T05:15:27.622Z,2.31
2023-04-09T05:17:54.387Z,2.36
2023-04-09T05:20:20.962Z,2.41
2023-04-09T05:22:47.606Z,2.48
2023-04-09T05:25:16.320Z,2.51
2023-04-09T05:27:43.149Z,2.54
2023-04-09T05:30:10.374Z,2.63
2023-04-09T05:32:37.277Z,2.69
2023-04-09T05:35:04.197Z,2.76
2023-04-09T05:37:30.791Z,2.81
2023-04-09T05:39:57.497Z,2.86
2023-04-09T05:42:24.206Z,2.91
2023-04-09T05:44:51.009Z,2.96
2023-04-09T05:47:17.669Z,3.01
2023-04-09T05:49:44.271Z,3.07
2023-04-09T05:52:10.964Z,3.11
2023-04-09T05:54:37.816Z,3.14
2023-04-09T05:57:04.606Z,3.17
2023-04-09T05:59:31.163Z,3.22
2023-04-09T06:01:57.755Z,3.26
2023-04-09T06:04:24.462Z,3.30
2023-04-09T06:06:51.822Z,3.35
2023-04-09T06:09:18.403Z,3.40
2023-04-09T06:11:44.956Z,3.46
2023-04-09T06:14:16.326Z,3.55
2023-04-09T06:16:42.933Z,3.61
2023-04-09T06:19:09.525Z,3.69
2023-04-09T06:21:36.259Z,3.76
2023-04-09T06:24:02.843Z,3.81
2023-04-09T06:26:29.390Z,3.86
2023-04-09T06:28:55.934Z,3.93
2023-04-09T06:31:22.617Z,4.02
2023-04-09T06:33:49.280Z,4.10
2023-04-09T06:36:16.002Z,4.19
2023-04-09T06:38:42.586Z,4.27
2023-04-09T06:41:09.369Z,4.36
2023-04-09T06:43:37.436Z,4.45
2023-04-09T06:46:04.162Z,4.52
2023-04-09T06:48:31.334Z,4.61
2023-04-09T06:50:57.912Z,4.72
2023-04-09T06:53:24.516Z,4.83
2023-04-09T06:55:51.375Z,4.93
2023-04-09T06:58:17.964Z,5.00
2023-04-09T07:00:44.539Z,5.09
2023-04-09T07:03:11.512Z,5.20
2023-04-09T07:05:38.231Z,5.29
2023-04-09T07:08:05.244Z,5.38
2023-04-09T07:10:31.881Z,5.44
2023-04-09T07:12:58.502Z,5.51
2023-04-09T07:15:25.212Z,5.58
2023-04-09T07:17:51.795Z,5.66
2023-04-09T07:20:18.490Z,5.72
2023-04-09T07:22:46.522Z,5.76
2023-04-09T07:25:13.099Z,5.81
2023-04-09T07:27:39.723Z,5.87
2023-04-09T07:30:07.004Z,5.93
2023-04-09T07:32:33.600Z,6.01
2023-04-09T07:35:00.376Z,6.10
2023-04-09T07:37:27.154Z,6.21
2023-04-09T07:39:53.837Z,6.28
2023-04-09T07:42:20.439Z,6.40
2023-04-09T07:44:47.741Z,6.52
2023-04-09T07:47:14.792Z,6.60
2023-04-09T07:49:42.063Z,6.70
2023-04-09T07:52:08.767Z,6.77
2023-04-09T07:54:35.847Z,6.89
2023-04-09T07:57:03.120Z,7.02
2023-04-09T07:59:31.588Z,7.16
2023-04-09T08:01:59.175Z,7.33
2023-04-09T08:04:27.160Z,7.44
2023-04-09T08:06:54.242Z,7.58
2023-04-09T08:09:21.552Z,7.72
2023-04-09T08:11:49.469Z,7.83
2023-04-09T08:14:17.135Z,7.97
2023-04-09T08:16:46.273Z,8.11
2023-04-09T08:19:14.881Z,8.25
2023-04-09T08:21:48.739Z,8.42
2023-04-09T08:24:15.687Z,8.57
2023-04-09T08:26:43.292Z,8.73
2023-04-09T08:29:12.359Z,8.82
2023-04-09T08:31:39.096Z,8.97
2023-04-09T08:34:06.202Z,9.16
2023-04-09T08:36:34.716Z,9.33
2023-04-09T08:39:02.267Z,9.45
2023-04-09T08:41:29.480Z,9.49
2023-04-09T08:43:58.945Z,9.63
2023-04-09T08:46:26.500Z,9.79
2023-04-09T08:48:53.813Z,9.94
2023-04-09T08:51:23.184Z,9.99
2023-04-09T08:53:55.843Z,9.99
2023-04-09T08:56:22.861Z,10.09
2023-04-09T08:58:49.744Z,10.19
2023-04-09T09:01:20.855Z,10.28
2023-04-09T09:04:05.088Z,10.24
2023-04-09T09:06:37.467Z,10.29
2023-04-09T09:09:11.036Z,10.38
2023-04-09T09:11:48.600Z,10.48
2023-04-09T09:14:17.127Z,10.53
2023-04-09T09:17:03.804Z,10.53
2023-04-09T09:19:33.661Z,10.61
2023-04-09T09:22:03.523Z,10.71
2023-04-09T09:24:32.545Z,10.82
2023-04-09T09:26:59.220Z,10.85
2023-04-09T09:29:26.337Z,10.86
2023-04-09T09:31:54.365Z,10.87
2023-04-09T09:34:23.458Z,10.87
2023-04-09T09:36:50.231Z,10.94
2023-04-09T09:39:17.994Z,11.06
2023-04-09T09:41:46.021Z,11.17
2023-04-09T09:44:29.971Z,11.26
2023-04-09T09:46:57.589Z,11.31
2023-04-09T09:49:24.111Z,11.42
2023-04-09T09:51:53.308Z,11.47
2023-04-09T09:54:25.566Z,11.51
2023-04-09T09:56:55.706Z,11.60
2023-04-09T09:59:31.006Z,11.68
2023-04-09T10:02:01.509Z,11.68
2023-04-09T10:04:29.768Z,11.71
2023-04-09T10:06:58.061Z,11.78
2023-04-09T10:09:28.105Z,11.82
2023-04-09T10:11:57.445Z,11.82
2023-04-09T10:14:24.727Z,11.81
2023-04-09T10:16:51.560Z,11.76
2023-04-09T10:19:18.720Z,11.64
2023-04-09T10:21:53.742Z,11.59
2023-04-09T10:24:20.808Z,11.53
2023-04-09T10:26:47.717Z,11.50
2023-04-09T10:29:16.416Z,11.36
2023-04-09T10:32:06.441Z,11.25
2023-04-09T10:34:41.954Z,11.24
2023-04-09T10:37:13.631Z,11.32
2023-04-09T10:39:47.857Z,11.43
2023-04-09T10:42:18.784Z,11.48
2023-04-09T10:44:46.037Z,11.43
2023-04-09T10:47:31.011Z,11.25
2023-04-09T10:49:57.488Z,11.23
2023-04-09T10:52:30.263Z,11.37
2023-04-09T10:54:58.826Z,11.54
2023-04-09T10:57:26.354Z,11.74
2023-04-09T10:59:54.907Z,11.85
2023-04-09T11:02:39.861Z,12.01
2023-04-09T11:05:32.422Z,12.04
2023-04-09T11:08:13.335Z,12.11
2023-04-09T11:10:44.032Z,12.21
2023-04-09T11:13:15.809Z,12.28
2023-04-09T11:15:42.981Z,12.38
2023-04-09T11:18:09.989Z,12.43
2023-04-09T11:20:36.665Z,12.41
2023-04-09T11:23:03.458Z,12.41
2023-04-09T11:25:32.986Z,12.38
2023-04-09T11:28:02.267Z,12.40
2023-04-09T11:30:29.112Z,12.41
2023-04-09T11:32:55.833Z,12.40
2023-04-09T11:35:23.733Z,12.43
2023-04-09T11:37:52.396Z,12.44
2023-04-09T11:40:26.885Z,12.47
2023-04-09T11:42:55.325Z,12.47
2023-04-09T11:45:27.195Z,12.45
2023-04-09T11:47:54.174Z,12.45
2023-04-09T11:50:21.851Z,12.37
2023-04-09T11:52:49.660Z,12.35
2023-04-09T11:55:27.109Z,12.35
2023-04-09T11:57:58.085Z,12.21
2023-04-09T12:00:25.083Z,12.11
2023-04-09T12:03:02.666Z,12.15
2023-04-09T12:05:32.028Z,12.21
2023-04-09T12:08:01.236Z,12.24
2023-04-09T12:10:29.671Z,12.24
2023-04-09T12:13:02.349Z,12.27
2023-04-09T12:15:37.863Z,12.32
2023-04-09T12:18:09.072Z,12.30
2023-04-09T12:20:39.678Z,12.28
2023-04-09T12:23:07.825Z,12.15
2023-04-09T12:25:39.762Z,12.11
2023-04-09T12:28:08.821Z,12.16
2023-04-09T12:30:36.058Z,12.19
2023-04-09T12:33:04.100Z,12.36
2023-04-09T12:35:30.974Z,12.31
2023-04-09T12:37:59.305Z,12.28
2023-04-09T12:40:26.432Z,12.31
2023-04-09T12:42:53.120Z,12.20
2023-04-09T12:45:20.932Z,12.14
2023-04-09T12:47:48.194Z,12.05
2023-04-09T12:50:16.263Z,12.05
2023-04-09T12:52:43.996Z,12.40
2023-04-09T12:55:12.114Z,13.09
2023-04-09T12:57:40.012Z,13.79
2023-04-09T13:00:08.017Z,14.55
2023-04-09T13:02:35.484Z,15.36
2023-04-09T13:05:02.608Z,15.93
2023-04-09T13:07:29.520Z,16.63
2023-04-09T13:09:57.204Z,17.25
2023-04-09T13:12:24.265Z,17.92
2023-04-09T13:14:53.683Z,18.48
2023-04-09T13:17:20.281Z,18.94
2023-04-09T13:19:46.916Z,19.75
2023-04-09T13:22:13.550Z,20.37
2023-04-09T13:24:40.195Z,20.68
2023-04-09T13:27:09.458Z,21.02
2023-04-09T13:29:36.267Z,20.95
2023-04-09T13:32:07.076Z,21.31
2023-04-09T13:34:35.626Z,21.89
2023-04-09T13:37:05.479Z,22.47
2023-04-09T13:39:32.955Z,23.02
2023-04-09T13:42:01.419Z,23.25
2023-04-09T13:44:29.255Z,23.48
2023-04-09T13:46:56.001Z,23.92
2023-04-09T13:49:22.693Z,23.66
2023-04-09T13:51:50.179Z,23.45
2023-04-09T13:54:17.486Z,24.02
2023-04-09T13:56:44.971Z,24.47
2023-04-09T13:59:11.824Z,24.85
2023-04-09T14:01:38.555Z,24.25
2023-04-09T14:04:05.304Z,23.45
2023-04-09T14:06:32.041Z,22.87
2023-04-09T14:08:58.622Z,23.21
2023-04-09T14:11:25.377Z,23.39
2023-04-09T14:13:52.057Z,23.27
2023-04-09T14:16:19.578Z,23.18
2023-04-09T14:18:46.360Z,22.19
2023-04-09T14:21:13.293Z,21.16
2023-04-09T14:23:40.377Z,20.36
2023-04-09T14:26:07.227Z,19.63
2023-04-09T14:28:33.829Z,18.88
2023-04-09T14:31:00.681Z,18.34
2023-04-09T14:33:27.630Z,18.16
2023-04-09T14:35:54.217Z,18.02
2023-04-09T14:38:20.815Z,18.15
2023-04-09T14:40:47.499Z,17.73
2023-04-09T14:43:14.245Z,17.05
2023-04-09T14:45:41.048Z,16.57
2023-04-09T14:48:08.193Z,16.42
2023-04-09T14:50:36.238Z,16.27
2023-04-09T14:53:03.836Z,16.30
2023-04-09T14:55:30.414Z,17.04
2023-04-09T14:57:57.092Z,17.34
2023-04-09T15:00:23.664Z,17.48
2023-04-09T15:02:50.660Z,17.87
2023-04-09T15:05:17.340Z,18.00
2023-04-09T15:07:44.099Z,18.84
2023-04-09T15:10:11.189Z,19.66
2023-04-09T15:12:37.781Z,20.26
2023-04-09T15:15:08.817Z,20.42
2023-04-09T15:20:02.572Z,20.51
2023-04-09T15:22:29.246Z,20.45
2023-04-09T15:24:56.188Z,20.14
2023-04-09T15:27:22.887Z,20.11
2023-04-09T15:29:49.584Z,20.40
2023-04-09T15:32:16.598Z,20.82
2023-04-09T15:34:43.205Z,21.22
2023-04-09T15:37:09.776Z,21.59
2023-04-09T15:39:36.639Z,21.04
2023-04-09T15:42:03.385Z,20.81
2023-04-09T15:44:30.105Z,20.90
2023-04-09T15:46:56.871Z,20.69
2023-04-09T15:49:23.627Z,20.83
2023-04-09T15:51:51.042Z,20.50
2023-04-09T15:54:17.761Z,20.68
2023-04-09T15:56:44.329Z,20.81
2023-04-09T15:59:10.905Z,20.48
2023-04-09T16:01:37.825Z,19.47
2023-04-09T16:04:04.919Z,18.80
2023-04-09T16:06:32.392Z,18.56
2023-04-09T16:08:59.205Z,18.52
2023-04-09T16:11:26.047Z,18.74
2023-04-09T16:13:52.792Z,18.29
2023-04-09T16:16:20.209Z,18.40
2023-04-09T16:18:47.632Z,17.91
2023-04-09T16:21:14.270Z,17.37
2023-04-09T16:23:41.011Z,16.93
2023-04-09T16:26:07.714Z,16.62
2023-04-09T16:28:34.266Z,16.21
2023-04-09T16:31:00.929Z,15.78
2023-04-09T16:33:27.590Z,15.46
2023-04-09T16:35:54.168Z,15.18
2023-04-09T16:38:20.794Z,14.93
2023-04-09T16:40:47.477Z,14.75
2023-04-09T16:43:14.071Z,14.51
2023-04-09T16:45:40.776Z,14.31
2023-04-09T16:48:12.220Z,14.19
2023-04-09T16:50:40.309Z,13.97
2023-04-09T16:53:08.511Z,13.87
2023-04-09T16:55:35.692Z,13.70
2023-04-09T16:58:02.299Z,13.71
2023-04-09T17:00:29.030Z,13.64
2023-04-09T17:02:57.930Z,13.49
2023-04-09T17:05:24.897Z,13.35
2023-04-09T17:07:52.441Z,13.22
2023-04-09T17:10:19.545Z,13.13
2023-04-09T17:12:46.409Z,13.01
2023-04-09T17:15:13.047Z,13.01
2023-04-09T17:17:39.832Z,12.89
2023-04-09T17:20:07.081Z,12.74
2023-04-09T17:22:35.142Z,12.61
2023-04-09T17:25:02.509Z,12.44
2023-04-09T17:27:29.223Z,12.37
2023-04-09T17:29:56.022Z,12.23
2023-04-09T17:32:22.855Z,12.17
2023-04-09T17:34:49.522Z,12.02
2023-04-09T17:37:16.388Z,11.91
2023-04-09T17:39:43.032Z,11.84
2023-04-09T17:42:11.849Z,11.80
2023-04-09T17:44:38.725Z,11.77
2023-04-09T17:47:07.288Z,11.64
2023-04-09T17:49:34.119Z,11.49
2023-04-09T17:52:01.249Z,11.38
2023-04-09T17:54:33.525Z,11.22
2023-04-09T17:57:01.350Z,11.09
2023-04-09T17:59:28.063Z,10.96
2023-04-09T18:01:55.323Z,10.80
2023-04-09T18:04:26.241Z,10.72
2023-04-09T18:06:53.153Z,10.71
2023-04-09T18:09:19.782Z,10.68
2023-04-09T18:11:47.177Z,10.60
2023-04-09T18:14:13.896Z,10.48
2023-04-09T18:16:41.360Z,10.45
2023-04-09T18:19:08.289Z,10.40
2023-04-09T18:21:37.756Z,10.34
2023-04-09T18:24:04.917Z,10.16
2023-04-09T18:26:33.423Z,10.14
2023-04-09T18:29:01.436Z,10.03
2023-04-09T18:31:28.596Z,9.95
2023-04-09T18:33:55.402Z,9.90
2023-04-09T18:36:22.296Z,9.80
2023-04-09T18:38:49.061Z,9.68
2023-04-09T18:41:23.173Z,9.59
2023-04-09T18:43:49.776Z,9.56
2023-04-09T18:46:16.386Z,9.49
2023-04-09T18:48:47.052Z,9.42
2023-04-09T18:51:14.496Z,9.36
2023-04-09T18:53:41.820Z,9.24
2023-04-09T18:56:08.469Z,9.18
2023-04-09T18:58:36.186Z,9.02
2023-04-09T19:01:12.354Z,8.95
2023-04-09T19:03:39.963Z,8.81
2023-04-09T19:06:18.068Z,8.63
2023-04-09T19:08:46.192Z,8.48
2023-04-09T19:11:13.484Z,8.40
2023-04-09T19:13:40.531Z,8.32
2023-04-09T19:16:09.059Z,8.22
2023-04-09T19:18:36.857Z,8.06
2023-04-09T19:21:03.552Z,7.97
2023-04-09T19:23:30.743Z,7.81
2023-04-09T19:25:57.461Z,7.64
2023-04-09T19:28:24.511Z,7.56
2023-04-09T19:30:54.254Z,7.44
2023-04-09T19:33:22.603Z,7.37
2023-04-09T19:35:50.183Z,7.18
2023-04-09T19:38:18.148Z,7.15
2023-04-09T19:40:45.969Z,7.06
2023-04-09T19:43:12.806Z,7.00
2023-04-09T19:45:39.742Z,6.84
2023-04-09T19:48:07.225Z,6.86
2023-04-09T19:50:38.874Z,6.79
2023-04-09T19:53:06.139Z,6.75
2023-04-09T19:55:33.639Z,6.67
2023-04-09T19:58:00.600Z,6.64
2023-04-09T20:00:28.311Z,6.53
2023-04-09T20:02:55.696Z,6.40
2023-04-09T20:05:22.964Z,6.29
2023-04-09T20:07:50.770Z,6.07
2023-04-09T20:10:17.656Z,5.93
2023-04-09T20:12:47.873Z,5.83
2023-04-09T20:15:14.813Z,5.69
2023-04-09T20:17:44.383Z,5.63
2023-04-09T20:20:11.828Z,5.55
2023-04-09T20:22:43.220Z,5.54
2023-04-09T20:25:12.837Z,5.55
2023-04-09T20:27:39.633Z,5.58
2023-04-09T20:30:07.150Z,5.59
2023-04-09T20:32:35.807Z,5.51
2023-04-09T20:35:02.527Z,5.35
2023-04-09T20:37:29.138Z,5.29
2023-04-09T20:39:55.726Z,5.23
2023-04-09T20:42:22.257Z,5.23
2023-04-09T20:44:48.784Z,5.14
2023-04-09T20:47:15.658Z,5.20
2023-04-09T20:49:43.046Z,5.25
2023-04-09T20:52:09.954Z,5.19
2023-04-09T20:54:36.481Z,5.20
2023-04-09T20:57:04.964Z,5.23
2023-04-09T20:59:32.201Z,5.26
2023-04-09T21:01:58.884Z,5.19
2023-04-09T21:04:26.103Z,5.08
2023-04-09T21:06:53.193Z,4.97
2023-04-09T21:09:19.808Z,4.83
2023-04-09T21:11:46.432Z,4.80
2023-04-09T21:14:14.779Z,4.70
2023-04-09T21:16:41.450Z,4.65
2023-04-09T21:19:08.094Z,4.69
2023-04-09T21:21:34.864Z,4.63
2023-04-09T21:24:01.829Z,4.60
2023-04-09T21:26:33.696Z,4.60
2023-04-09T21:29:11.768Z,4.62
2023-04-09T21:31:38.386Z,4.61
2023-04-09T21:34:05.237Z,4.56
2023-04-09T21:36:34.677Z,4.51
2023-04-09T21:39:01.529Z,4.51
2023-04-09T21:41:28.258Z,4.50
2023-04-09T21:43:54.897Z,4.50
2023-04-09T21:46:21.794Z,4.39
2023-04-09T21:48:48.538Z,4.40
2023-04-09T21:51:15.115Z,4.32
2023-04-09T21:53:41.680Z,4.34
2023-04-09T21:56:08.473Z,4.46
2023-04-09T21:58:35.338Z,4.48
2023-04-09T22:01:02.039Z,4.42
2023-04-09T22:03:28.960Z,4.34
2023-04-09T22:05:55.877Z,4.28
2023-04-09T22:08:22.446Z,4.18
2023-04-09T22:10:49.039Z,4.12
2023-04-09T22:13:15.912Z,3.94
2023-04-09T22:15:42.782Z,3.80
2023-04-09T22:18:09.420Z,3.81
2023-04-09T22:20:36.210Z,3.78
2023-04-09T22:23:03.133Z,3.90
2023-04-09T22:25:34.832Z,3.91
2023-04-09T22:28:01.473Z,3.88
2023-04-09T22:30:28.142Z,3.87
2023-04-09T22:32:54.783Z,3.84
2023-04-09T22:35:21.358Z,3.85
2023-04-09T22:37:47.939Z,3.80
2023-04-09T22:40:16.108Z,3.79
2023-04-09T22:42:44.038Z,3.74
2023-04-09T22:45:11.281Z,3.73
2023-04-09T22:47:38.781Z,3.70
2023-04-09T22:50:07.014Z,3.61
2023-04-09T22:52:33.580Z,3.60
2023-04-09T22:55:00.318Z,3.57
2023-04-09T22:57:26.899Z,3.56
2023-04-09T22:59:53.415Z,3.55
2023-04-09T23:02:20.160Z,3.52
2023-04-09T23:04:46.883Z,3.51
2023-04-09T23:07:13.451Z,3.53
2023-04-09T23:09:40.212Z,3.47
2023-04-09T23:12:06.762Z,3.42
2023-04-09T23:14:33.307Z,3.39
2023-04-09T23:16:59.922Z,3.35
2023-04-09T23:19:27.082Z,3.30
2023-04-09T23:21:53.639Z,3.30
2023-04-09T23:24:20.291Z,3.26
2023-04-09T23:26:46.862Z,3.30
2023-04-09T23:29:13.461Z,3.24
2023-04-09T23:31:40.066Z,3.18
2023-04-09T23:34:06.696Z,3.17
2023-04-09T23:36:33.313Z,3.16
2023-04-09T23:38:59.908Z,3.14
2023-04-09T23:41:26.716Z,3.11
2023-04-09T23:43:53.497Z,3.06
2023-04-09T23:46:20.677Z,3.04
2023-04-09T23:48:47.224Z,2.94
2023-04-09T23:51:18.435Z,2.92
2023-04-09T23:53:45.431Z,2.95
2023-04-09T23:56:14.543Z,2.93
2023-04-09T23:58:41.329Z,2.89
